sensor_id;sensor_type;location;lat;lon;timestamp;P1;durP1;ratioP1;P2;durP2;ratioP2
19301;SDS011;9785;59.362;12.152;2023-05-23T00:01:44;14.97;;;11.20;;
19301;SDS011;9785;59.362;12.152;2023-05-23T00:04:12;12.03;;;10.70;;
19301;SDS011;9785;59.362;12.152;2023-05-23T00:06:44;13.57;;;11.03;;
19301;SDS011;9785;59.362;12.152;2023-05-23T00:09:16;15.00;;;11.33;;
19301;SDS011;9785;59.362;12.152;2023-05-23T00:11:44;12.57;;;10.90;;
19301;SDS011;9785;59.362;12.152;2023-05-23T00:14:14;13.50;;;10.97;;
19301;SDS011;9785;59.362;12.152;2023-05-23T00:16:44;14.10;;;11.10;;
19301;SDS011;9785;59.362;12.152;2023-05-23T00:19:15;13.73;;;11.00;;
19301;SDS011;9785;59.362;12.152;2023-05-23T00:21:45;16.57;;;10.57;;
19301;SDS011;9785;59.362;12.152;2023-05-23T00:24:15;14.23;;;10.30;;
19301;SDS011;9785;59.362;12.152;2023-05-23T00:26:44;13.17;;;10.57;;
19301;SDS011;9785;59.362;12.152;2023-05-23T00:29:14;11.73;;;10.20;;
19301;SDS011;9785;59.362;12.152;2023-05-23T00:31:43;10.90;;;9.77;;
19301;SDS011;9785;59.362;12.152;2023-05-23T00:34:13;10.23;;;9.17;;
19301;SDS011;9785;59.362;12.152;2023-05-23T00:36:43;11.80;;;10.60;;
19301;SDS011;9785;59.362;12.152;2023-05-23T00:39:13;11.83;;;9.77;;
19301;SDS011;9785;59.362;12.152;2023-05-23T00:41:46;13.00;;;10.23;;
19301;SDS011;9785;59.362;12.152;2023-05-23T00:44:18;14.60;;;10.47;;
19301;SDS011;9785;59.362;12.152;2023-05-23T00:46:48;11.43;;;10.07;;
19301;SDS011;9785;59.362;12.152;2023-05-23T00:49:18;10.20;;;9.20;;
19301;SDS011;9785;59.362;12.152;2023-05-23T00:51:47;11.13;;;9.60;;
19301;SDS011;9785;59.362;12.152;2023-05-23T00:54:16;11.93;;;10.63;;
19301;SDS011;9785;59.362;12.152;2023-05-23T00:56:46;12.07;;;9.67;;
19301;SDS011;9785;59.362;12.152;2023-05-23T00:59:15;9.60;;;8.70;;
19301;SDS011;9785;59.362;12.152;2023-05-23T01:01:45;11.53;;;9.23;;
19301;SDS011;9785;59.362;12.152;2023-05-23T01:04:15;10.80;;;9.63;;
19301;SDS011;9785;59.362;12.152;2023-05-23T01:06:45;12.60;;;10.03;;
19301;SDS011;9785;59.362;12.152;2023-05-23T01:09:14;14.20;;;9.83;;
19301;SDS011;9785;59.362;12.152;2023-05-23T01:11:44;11.63;;;9.73;;
19301;SDS011;9785;59.362;12.152;2023-05-23T01:14:18;12.77;;;9.60;;
19301;SDS011;9785;59.362;12.152;2023-05-23T01:16:51;10.70;;;8.93;;
19301;SDS011;9785;59.362;12.152;2023-05-23T01:19:29;10.53;;;9.03;;
19301;SDS011;9785;59.362;12.152;2023-05-23T01:22:02;9.80;;;8.60;;
19301;SDS011;9785;59.362;12.152;2023-05-23T01:24:35;9.50;;;8.47;;
19301;SDS011;9785;59.362;12.152;2023-05-23T01:27:07;9.27;;;8.37;;
19301;SDS011;9785;59.362;12.152;2023-05-23T01:29:38;10.83;;;9.30;;
19301;SDS011;9785;59.362;12.152;2023-05-23T01:32:10;11.47;;;9.10;;
19301;SDS011;9785;59.362;12.152;2023-05-23T01:34:39;14.03;;;10.00;;
19301;SDS011;9785;59.362;12.152;2023-05-23T01:37:09;9.93;;;8.80;;
19301;SDS011;9785;59.362;12.152;2023-05-23T01:39:40;15.80;;;10.10;;
19301;SDS011;9785;59.362;12.152;2023-05-23T01:42:09;11.97;;;10.40;;
19301;SDS011;9785;59.362;12.152;2023-05-23T01:44:39;11.07;;;9.97;;
19301;SDS011;9785;59.362;12.152;2023-05-23T01:47:08;12.70;;;9.13;;
19301;SDS011;9785;59.362;12.152;2023-05-23T01:49:38;10.80;;;9.60;;
19301;SDS011;9785;59.362;12.152;2023-05-23T01:52:07;12.20;;;9.57;;
19301;SDS011;9785;59.362;12.152;2023-05-23T01:54:36;13.20;;;9.30;;
19301;SDS011;9785;59.362;12.152;2023-05-23T01:57:09;11.30;;;9.90;;
19301;SDS011;9785;59.362;12.152;2023-05-23T01:59:39;11.37;;;9.97;;
19301;SDS011;9785;59.362;12.152;2023-05-23T02:02:08;13.50;;;9.20;;
19301;SDS011;9785;59.362;12.152;2023-05-23T02:04:36;13.97;;;9.70;;
19301;SDS011;9785;59.362;12.152;2023-05-23T02:07:05;10.97;;;9.87;;
19301;SDS011;9785;59.362;12.152;2023-05-23T02:09:34;13.07;;;10.50;;
19301;SDS011;9785;59.362;12.152;2023-05-23T02:12:02;14.60;;;11.73;;
19301;SDS011;9785;59.362;12.152;2023-05-23T02:14:31;15.03;;;12.03;;
19301;SDS011;9785;59.362;12.152;2023-05-23T02:17:01;15.93;;;12.80;;
19301;SDS011;9785;59.362;12.152;2023-05-23T02:19:30;17.37;;;12.90;;
19301;SDS011;9785;59.362;12.152;2023-05-23T02:21:59;15.83;;;13.13;;
19301;SDS011;9785;59.362;12.152;2023-05-23T02:24:27;15.60;;;12.97;;
19301;SDS011;9785;59.362;12.152;2023-05-23T02:26:56;15.13;;;12.23;;
19301;SDS011;9785;59.362;12.152;2023-05-23T02:29:25;17.03;;;13.23;;
19301;SDS011;9785;59.362;12.152;2023-05-23T02:31:53;15.77;;;13.13;;
19301;SDS011;9785;59.362;12.152;2023-05-23T02:34:23;15.90;;;12.73;;
19301;SDS011;9785;59.362;12.152;2023-05-23T02:36:52;14.83;;;11.47;;
19301;SDS011;9785;59.362;12.152;2023-05-23T02:39:21;17.87;;;13.70;;
19301;SDS011;9785;59.362;12.152;2023-05-23T02:41:49;16.83;;;12.60;;
19301;SDS011;9785;59.362;12.152;2023-05-23T02:44:18;15.73;;;12.80;;
19301;SDS011;9785;59.362;12.152;2023-05-23T02:46:47;16.60;;;12.70;;
19301;SDS011;9785;59.362;12.152;2023-05-23T02:49:15;15.73;;;13.23;;
19301;SDS011;9785;59.362;12.152;2023-05-23T02:51:45;14.47;;;12.17;;
19301;SDS011;9785;59.362;12.152;2023-05-23T02:54:14;15.03;;;11.93;;
19301;SDS011;9785;59.362;12.152;2023-05-23T02:56:43;13.70;;;11.63;;
19301;SDS011;9785;59.362;12.152;2023-05-23T02:59:12;15.73;;;12.17;;
19301;SDS011;9785;59.362;12.152;2023-05-23T03:01:41;13.53;;;11.57;;
19301;SDS011;9785;59.362;12.152;2023-05-23T03:04:09;12.00;;;10.50;;
19301;SDS011;9785;59.362;12.152;2023-05-23T03:06:39;11.90;;;10.13;;
19301;SDS011;9785;59.362;12.152;2023-05-23T03:09:11;12.83;;;10.77;;
19301;SDS011;9785;59.362;12.152;2023-05-23T03:11:39;13.63;;;11.50;;
19301;SDS011;9785;59.362;12.152;2023-05-23T03:14:08;13.63;;;11.63;;
19301;SDS011;9785;59.362;12.152;2023-05-23T03:16:37;12.50;;;11.07;;
19301;SDS011;9785;59.362;12.152;2023-05-23T03:19:05;16.13;;;11.37;;
19301;SDS011;9785;59.362;12.152;2023-05-23T03:21:34;12.53;;;11.23;;
19301;SDS011;9785;59.362;12.152;2023-05-23T03:24:03;15.40;;;12.70;;
19301;SDS011;9785;59.362;12.152;2023-05-23T03:26:33;14.20;;;10.90;;
19301;SDS011;9785;59.362;12.152;2023-05-23T03:29:01;17.20;;;11.07;;
19301;SDS011;9785;59.362;12.152;2023-05-23T03:31:30;15.37;;;11.97;;
19301;SDS011;9785;59.362;12.152;2023-05-23T03:33:59;13.87;;;10.53;;
19301;SDS011;9785;59.362;12.152;2023-05-23T03:36:27;14.10;;;12.17;;
19301;SDS011;9785;59.362;12.152;2023-05-23T03:38:58;17.20;;;14.20;;
19301;SDS011;9785;59.362;12.152;2023-05-23T03:41:27;13.07;;;11.20;;
19301;SDS011;9785;59.362;12.152;2023-05-23T03:43:57;15.57;;;11.57;;
19301;SDS011;9785;59.362;12.152;2023-05-23T03:46:26;18.37;;;13.80;;
19301;SDS011;9785;59.362;12.152;2023-05-23T03:48:55;18.37;;;14.60;;
19301;SDS011;9785;59.362;12.152;2023-05-23T03:51:23;22.03;;;17.20;;
19301;SDS011;9785;59.362;12.152;2023-05-23T03:53:53;20.07;;;15.67;;
19301;SDS011;9785;59.362;12.152;2023-05-23T03:56:22;21.90;;;16.07;;
19301;SDS011;9785;59.362;12.152;2023-05-23T03:58:51;16.47;;;12.87;;
19301;SDS011;9785;59.362;12.152;2023-05-23T04:01:21;17.80;;;14.33;;
19301;SDS011;9785;59.362;12.152;2023-05-23T04:03:50;14.30;;;11.27;;
19301;SDS011;9785;59.362;12.152;2023-05-23T04:06:19;13.63;;;11.33;;
19301;SDS011;9785;59.362;12.152;2023-05-23T04:08:48;12.00;;;10.17;;
19301;SDS011;9785;59.362;12.152;2023-05-23T04:11:17;17.00;;;12.23;;
19301;SDS011;9785;59.362;12.152;2023-05-23T04:13:47;15.83;;;11.83;;
19301;SDS011;9785;59.362;12.152;2023-05-23T04:16:17;14.17;;;10.53;;
19301;SDS011;9785;59.362;12.152;2023-05-23T04:18:49;14.97;;;11.53;;
19301;SDS011;9785;59.362;12.152;2023-05-23T04:21:18;18.07;;;12.87;;
19301;SDS011;9785;59.362;12.152;2023-05-23T04:23:46;18.50;;;14.63;;
19301;SDS011;9785;59.362;12.152;2023-05-23T04:26:15;14.27;;;12.37;;
19301;SDS011;9785;59.362;12.152;2023-05-23T04:28:44;16.47;;;12.37;;
19301;SDS011;9785;59.362;12.152;2023-05-23T04:31:14;15.17;;;12.90;;
19301;SDS011;9785;59.362;12.152;2023-05-23T04:33:42;11.47;;;10.27;;
19301;SDS011;9785;59.362;12.152;2023-05-23T04:36:13;13.77;;;10.50;;
19301;SDS011;9785;59.362;12.152;2023-05-23T04:38:41;17.33;;;10.73;;
19301;SDS011;9785;59.362;12.152;2023-05-23T04:41:10;11.13;;;10.03;;
19301;SDS011;9785;59.362;12.152;2023-05-23T04:43:38;11.43;;;10.23;;
19301;SDS011;9785;59.362;12.152;2023-05-23T04:46:08;14.23;;;10.73;;
19301;SDS011;9785;59.362;12.152;2023-05-23T04:48:36;10.97;;;9.73;;
19301;SDS011;9785;59.362;12.152;2023-05-23T04:51:05;11.07;;;8.97;;
19301;SDS011;9785;59.362;12.152;2023-05-23T04:53:35;11.77;;;9.33;;
19301;SDS011;9785;59.362;12.152;2023-05-23T04:56:07;15.07;;;11.07;;
19301;SDS011;9785;59.362;12.152;2023-05-23T04:58:35;13.30;;;11.43;;
19301;SDS011;9785;59.362;12.152;2023-05-23T05:01:05;15.43;;;12.53;;
19301;SDS011;9785;59.362;12.152;2023-05-23T05:03:35;14.37;;;12.40;;
19301;SDS011;9785;59.362;12.152;2023-05-23T05:06:04;13.57;;;11.53;;
19301;SDS011;9785;59.362;12.152;2023-05-23T05:08:33;14.03;;;12.00;;
19301;SDS011;9785;59.362;12.152;2023-05-23T05:11:03;13.23;;;11.83;;
19301;SDS011;9785;59.362;12.152;2023-05-23T05:13:31;14.33;;;12.37;;
19301;SDS011;9785;59.362;12.152;2023-05-23T05:16:00;12.47;;;11.17;;
19301;SDS011;9785;59.362;12.152;2023-05-23T05:18:29;14.47;;;10.53;;
19301;SDS011;9785;59.362;12.152;2023-05-23T05:20:58;12.93;;;11.33;;
19301;SDS011;9785;59.362;12.152;2023-05-23T05:23:26;13.23;;;11.07;;
19301;SDS011;9785;59.362;12.152;2023-05-23T05:25:55;13.67;;;11.80;;
19301;SDS011;9785;59.362;12.152;2023-05-23T05:28:25;13.77;;;10.70;;
19301;SDS011;9785;59.362;12.152;2023-05-23T05:30:54;12.30;;;10.53;;
19301;SDS011;9785;59.362;12.152;2023-05-23T05:33:23;11.53;;;8.60;;
19301;SDS011;9785;59.362;12.152;2023-05-23T05:35:53;10.07;;;8.97;;
19301;SDS011;9785;59.362;12.152;2023-05-23T05:38:22;9.67;;;7.87;;
19301;SDS011;9785;59.362;12.152;2023-05-23T05:40:51;9.03;;;7.80;;
19301;SDS011;9785;59.362;12.152;2023-05-23T05:43:19;8.70;;;7.13;;
19301;SDS011;9785;59.362;12.152;2023-05-23T05:45:49;8.23;;;7.10;;
19301;SDS011;9785;59.362;12.152;2023-05-23T05:48:18;10.07;;;7.00;;
19301;SDS011;9785;59.362;12.152;2023-05-23T05:50:47;8.23;;;7.43;;
19301;SDS011;9785;59.362;12.152;2023-05-23T05:53:15;7.77;;;6.97;;
19301;SDS011;9785;59.362;12.152;2023-05-23T05:55:44;7.03;;;6.27;;
19301;SDS011;9785;59.362;12.152;2023-05-23T05:58:12;6.97;;;6.37;;
19301;SDS011;9785;59.362;12.152;2023-05-23T06:00:41;7.53;;;6.13;;
19301;SDS011;9785;59.362;12.152;2023-05-23T06:03:12;7.50;;;6.80;;
19301;SDS011;9785;59.362;12.152;2023-05-23T06:05:41;8.70;;;6.50;;
19301;SDS011;9785;59.362;12.152;2023-05-23T06:08:09;7.20;;;6.50;;
19301;SDS011;9785;59.362;12.152;2023-05-23T06:10:38;7.50;;;6.73;;
19301;SDS011;9785;59.362;12.152;2023-05-23T06:13:07;10.63;;;7.40;;
19301;SDS011;9785;59.362;12.152;2023-05-23T06:15:36;9.53;;;7.40;;
19301;SDS011;9785;59.362;12.152;2023-05-23T06:18:05;7.73;;;7.03;;
19301;SDS011;9785;59.362;12.152;2023-05-23T06:20:35;11.63;;;7.73;;
19301;SDS011;9785;59.362;12.152;2023-05-23T06:23:03;7.57;;;6.70;;
19301;SDS011;9785;59.362;12.152;2023-05-23T06:25:32;8.57;;;7.30;;
19301;SDS011;9785;59.362;12.152;2023-05-23T06:28:01;7.73;;;6.93;;
19301;SDS011;9785;59.362;12.152;2023-05-23T06:30:29;7.00;;;6.30;;
19301;SDS011;9785;59.362;12.152;2023-05-23T06:32:59;7.20;;;6.50;;
19301;SDS011;9785;59.362;12.152;2023-05-23T06:35:28;6.77;;;6.17;;
19301;SDS011;9785;59.362;12.152;2023-05-23T06:37:58;7.60;;;6.43;;
19301;SDS011;9785;59.362;12.152;2023-05-23T06:40:26;6.70;;;6.00;;
19301;SDS011;9785;59.362;12.152;2023-05-23T06:42:55;8.83;;;6.40;;
19301;SDS011;9785;59.362;12.152;2023-05-23T06:45:24;6.87;;;6.27;;
19301;SDS011;9785;59.362;12.152;2023-05-23T06:47:52;7.17;;;6.40;;
19301;SDS011;9785;59.362;12.152;2023-05-23T06:50:21;7.20;;;6.30;;
19301;SDS011;9785;59.362;12.152;2023-05-23T06:52:50;9.13;;;6.67;;
19301;SDS011;9785;59.362;12.152;2023-05-23T06:55:20;8.03;;;5.77;;
19301;SDS011;9785;59.362;12.152;2023-05-23T06:57:48;6.87;;;6.00;;
19301;SDS011;9785;59.362;12.152;2023-05-23T07:00:18;7.53;;;6.60;;
19301;SDS011;9785;59.362;12.152;2023-05-23T07:02:46;6.40;;;5.80;;
19301;SDS011;9785;59.362;12.152;2023-05-23T07:05:15;6.50;;;5.90;;
19301;SDS011;9785;59.362;12.152;2023-05-23T07:07:44;7.67;;;5.93;;
19301;SDS011;9785;59.362;12.152;2023-05-23T07:10:13;6.73;;;6.03;;
19301;SDS011;9785;59.362;12.152;2023-05-23T07:12:43;8.67;;;6.30;;
19301;SDS011;9785;59.362;12.152;2023-05-23T07:15:11;6.67;;;6.07;;
19301;SDS011;9785;59.362;12.152;2023-05-23T07:17:40;9.33;;;6.53;;
19301;SDS011;9785;59.362;12.152;2023-05-23T07:20:09;7.17;;;6.37;;
19301;SDS011;9785;59.362;12.152;2023-05-23T07:22:38;10.60;;;6.40;;
19301;SDS011;9785;59.362;12.152;2023-05-23T07:25:07;7.20;;;6.53;;
19301;SDS011;9785;59.362;12.152;2023-05-23T07:27:35;7.33;;;6.67;;
19301;SDS011;9785;59.362;12.152;2023-05-23T07:30:06;6.83;;;6.23;;
19301;SDS011;9785;59.362;12.152;2023-05-23T07:32:36;7.63;;;6.33;;
19301;SDS011;9785;59.362;12.152;2023-05-23T07:35:05;7.37;;;6.40;;
19301;SDS011;9785;59.362;12.152;2023-05-23T07:37:33;7.90;;;6.63;;
19301;SDS011;9785;59.362;12.152;2023-05-23T07:40:03;7.17;;;6.47;;
19301;SDS011;9785;59.362;12.152;2023-05-23T07:42:32;6.60;;;5.90;;
19301;SDS011;9785;59.362;12.152;2023-05-23T07:45:00;7.63;;;6.30;;
19301;SDS011;9785;59.362;12.152;2023-05-23T07:47:30;6.63;;;6.03;;
19301;SDS011;9785;59.362;12.152;2023-05-23T07:49:59;8.27;;;6.40;;
19301;SDS011;9785;59.362;12.152;2023-05-23T07:52:28;7.30;;;6.60;;
19301;SDS011;9785;59.362;12.152;2023-05-23T07:54:58;6.83;;;5.83;;
19301;SDS011;9785;59.362;12.152;2023-05-23T07:57:26;6.43;;;5.40;;
19301;SDS011;9785;59.362;12.152;2023-05-23T07:59:55;6.47;;;5.43;;
19301;SDS011;9785;59.362;12.152;2023-05-23T08:02:24;6.77;;;5.87;;
19301;SDS011;9785;59.362;12.152;2023-05-23T08:04:54;6.47;;;5.87;;
19301;SDS011;9785;59.362;12.152;2023-05-23T08:07:23;6.17;;;5.57;;
19301;SDS011;9785;59.362;12.152;2023-05-23T08:09:52;6.80;;;5.30;;
19301;SDS011;9785;59.362;12.152;2023-05-23T08:12:21;5.93;;;5.33;;
19301;SDS011;9785;59.362;12.152;2023-05-23T08:14:49;5.80;;;5.30;;
19301;SDS011;9785;59.362;12.152;2023-05-23T08:17:18;6.70;;;5.73;;
19301;SDS011;9785;59.362;12.152;2023-05-23T08:19:47;6.30;;;5.47;;
19301;SDS011;9785;59.362;12.152;2023-05-23T08:22:16;7.47;;;5.20;;
19301;SDS011;9785;59.362;12.152;2023-05-23T08:24:45;7.23;;;5.27;;
19301;SDS011;9785;59.362;12.152;2023-05-23T08:27:14;5.90;;;5.40;;
19301;SDS011;9785;59.362;12.152;2023-05-23T08:29:42;5.23;;;4.80;;
19301;SDS011;9785;59.362;12.152;2023-05-23T08:32:12;7.53;;;5.13;;
19301;SDS011;9785;59.362;12.152;2023-05-23T08:34:40;5.57;;;4.93;;
19301;SDS011;9785;59.362;12.152;2023-05-23T08:37:09;5.30;;;4.60;;
19301;SDS011;9785;59.362;12.152;2023-05-23T08:39:39;5.30;;;4.80;;
19301;SDS011;9785;59.362;12.152;2023-05-23T08:42:08;5.30;;;4.80;;
19301;SDS011;9785;59.362;12.152;2023-05-23T08:44:36;5.47;;;4.97;;
19301;SDS011;9785;59.362;12.152;2023-05-23T08:47:06;6.00;;;5.00;;
19301;SDS011;9785;59.362;12.152;2023-05-23T08:49:36;4.73;;;4.33;;
19301;SDS011;9785;59.362;12.152;2023-05-23T08:52:06;5.63;;;5.13;;
19301;SDS011;9785;59.362;12.152;2023-05-23T08:54:36;4.77;;;4.37;;
19301;SDS011;9785;59.362;12.152;2023-05-23T08:57:07;4.20;;;3.90;;
19301;SDS011;9785;59.362;12.152;2023-05-23T08:59:36;3.93;;;3.63;;
19301;SDS011;9785;59.362;12.152;2023-05-23T09:02:06;3.80;;;3.50;;
19301;SDS011;9785;59.362;12.152;2023-05-23T09:04:35;4.53;;;4.13;;
19301;SDS011;9785;59.362;12.152;2023-05-23T09:07:04;8.80;;;4.33;;
19301;SDS011;9785;59.362;12.152;2023-05-23T09:09:34;4.97;;;4.50;;
19301;SDS011;9785;59.362;12.152;2023-05-23T09:12:02;4.47;;;4.17;;
19301;SDS011;9785;59.362;12.152;2023-05-23T09:14:32;4.50;;;4.20;;
19301;SDS011;9785;59.362;12.152;2023-05-23T09:17:02;4.90;;;4.37;;
19301;SDS011;9785;59.362;12.152;2023-05-23T09:19:31;5.00;;;4.60;;
19301;SDS011;9785;59.362;12.152;2023-05-23T09:22:01;4.80;;;4.40;;
19301;SDS011;9785;59.362;12.152;2023-05-23T09:24:33;4.87;;;4.50;;
19301;SDS011;9785;59.362;12.152;2023-05-23T09:27:03;4.27;;;3.97;;
19301;SDS011;9785;59.362;12.152;2023-05-23T09:29:37;4.77;;;4.20;;
19301;SDS011;9785;59.362;12.152;2023-05-23T09:32:12;5.30;;;4.80;;
19301;SDS011;9785;59.362;12.152;2023-05-23T09:34:40;5.70;;;5.10;;
19301;SDS011;9785;59.362;12.152;2023-05-23T09:37:10;5.50;;;5.07;;
19301;SDS011;9785;59.362;12.152;2023-05-23T09:39:44;5.60;;;5.10;;
19301;SDS011;9785;59.362;12.152;2023-05-23T09:42:18;6.77;;;5.33;;
19301;SDS011;9785;59.362;12.152;2023-05-23T09:44:49;6.13;;;4.93;;
19301;SDS011;9785;59.362;12.152;2023-05-23T09:47:17;6.03;;;5.53;;
19301;SDS011;9785;59.362;12.152;2023-05-23T09:49:46;7.00;;;5.27;;
19301;SDS011;9785;59.362;12.152;2023-05-23T09:52:16;5.67;;;5.17;;
19301;SDS011;9785;59.362;12.152;2023-05-23T09:54:46;6.93;;;5.63;;
19301;SDS011;9785;59.362;12.152;2023-05-23T09:57:15;5.63;;;5.13;;
19301;SDS011;9785;59.362;12.152;2023-05-23T09:59:44;5.57;;;4.90;;
19301;SDS011;9785;59.362;12.152;2023-05-23T10:02:15;5.53;;;5.03;;
19301;SDS011;9785;59.362;12.152;2023-05-23T10:04:45;5.83;;;5.23;;
19301;SDS011;9785;59.362;12.152;2023-05-23T10:07:16;6.23;;;5.23;;
19301;SDS011;9785;59.362;12.152;2023-05-23T10:09:46;5.80;;;5.30;;
19301;SDS011;9785;59.362;12.152;2023-05-23T10:12:20;5.27;;;4.80;;
19301;SDS011;9785;59.362;12.152;2023-05-23T10:14:58;5.40;;;5.00;;
19301;SDS011;9785;59.362;12.152;2023-05-23T10:17:32;5.70;;;5.20;;
19301;SDS011;9785;59.362;12.152;2023-05-23T10:20:03;6.80;;;5.63;;
19301;SDS011;9785;59.362;12.152;2023-05-23T10:22:35;6.20;;;5.63;;
19301;SDS011;9785;59.362;12.152;2023-05-23T10:25:04;6.47;;;5.83;;
19301;SDS011;9785;59.362;12.152;2023-05-23T10:27:34;5.83;;;4.13;;
19301;SDS011;9785;59.362;12.152;2023-05-23T10:30:03;4.07;;;3.00;;
19301;SDS011;9785;59.362;12.152;2023-05-23T10:32:33;2.50;;;2.30;;
19301;SDS011;9785;59.362;12.152;2023-05-23T10:35:04;3.47;;;2.30;;
19301;SDS011;9785;59.362;12.152;2023-05-23T10:37:37;3.73;;;2.80;;
19301;SDS011;9785;59.362;12.152;2023-05-23T10:40:16;3.87;;;2.37;;
19301;SDS011;9785;59.362;12.152;2023-05-23T10:42:48;5.37;;;2.50;;
19301;SDS011;9785;59.362;12.152;2023-05-23T10:45:20;2.80;;;2.60;;
19301;SDS011;9785;59.362;12.152;2023-05-23T10:47:51;3.37;;;3.07;;
19301;SDS011;9785;59.362;12.152;2023-05-23T10:53:07;3.00;;;2.80;;
19301;SDS011;9785;59.362;12.152;2023-05-23T10:55:37;3.43;;;2.60;;
19301;SDS011;9785;59.362;12.152;2023-05-23T10:58:08;4.57;;;3.73;;
19301;SDS011;9785;59.362;12.152;2023-05-23T11:00:37;3.00;;;2.77;;
19301;SDS011;9785;59.362;12.152;2023-05-23T11:03:08;3.10;;;2.90;;
19301;SDS011;9785;59.362;12.152;2023-05-23T11:05:37;3.57;;;2.90;;
19301;SDS011;9785;59.362;12.152;2023-05-23T11:08:14;4.50;;;2.60;;
19301;SDS011;9785;59.362;12.152;2023-05-23T11:10:53;2.53;;;2.20;;
19301;SDS011;9785;59.362;12.152;2023-05-23T11:13:22;2.80;;;2.60;;
19301;SDS011;9785;59.362;12.152;2023-05-23T11:15:50;2.33;;;2.23;;
19301;SDS011;9785;59.362;12.152;2023-05-23T11:18:21;4.93;;;2.27;;
19301;SDS011;9785;59.362;12.152;2023-05-23T11:20:51;2.40;;;2.20;;
19301;SDS011;9785;59.362;12.152;2023-05-23T11:23:20;3.23;;;2.00;;
19301;SDS011;9785;59.362;12.152;2023-05-23T11:25:49;2.90;;;2.27;;
19301;SDS011;9785;59.362;12.152;2023-05-23T11:28:19;2.43;;;2.23;;
19301;SDS011;9785;59.362;12.152;2023-05-23T11:30:50;2.03;;;1.93;;
19301;SDS011;9785;59.362;12.152;2023-05-23T11:33:20;2.43;;;2.23;;
19301;SDS011;9785;59.362;12.152;2023-05-23T11:35:49;3.37;;;2.20;;
19301;SDS011;9785;59.362;12.152;2023-05-23T11:38:18;4.67;;;2.30;;
19301;SDS011;9785;59.362;12.152;2023-05-23T11:40:46;2.20;;;2.10;;
19301;SDS011;9785;59.362;12.152;2023-05-23T11:43:15;2.33;;;2.20;;
19301;SDS011;9785;59.362;12.152;2023-05-23T11:45:45;2.50;;;2.20;;
19301;SDS011;9785;59.362;12.152;2023-05-23T11:48:14;1.97;;;1.90;;
19301;SDS011;9785;59.362;12.152;2023-05-23T11:50:46;2.87;;;2.03;;
19301;SDS011;9785;59.362;12.152;2023-05-23T11:53:15;1.93;;;1.83;;
19301;SDS011;9785;59.362;12.152;2023-05-23T11:55:50;5.30;;;2.00;;
19301;SDS011;9785;59.362;12.152;2023-05-23T11:58:20;2.00;;;1.90;;
19301;SDS011;9785;59.362;12.152;2023-05-23T12:00:49;2.00;;;1.90;;
19301;SDS011;9785;59.362;12.152;2023-05-23T12:03:20;2.10;;;1.90;;
19301;SDS011;9785;59.362;12.152;2023-05-23T12:05:51;2.13;;;2.00;;
19301;SDS011;9785;59.362;12.152;2023-05-23T12:08:19;2.10;;;2.00;;
19301;SDS011;9785;59.362;12.152;2023-05-23T12:10:48;2.30;;;2.20;;
19301;SDS011;9785;59.362;12.152;2023-05-23T12:13:18;2.23;;;2.13;;
19301;SDS011;9785;59.362;12.152;2023-05-23T12:15:48;2.13;;;2.03;;
19301;SDS011;9785;59.362;12.152;2023-05-23T12:18:18;2.30;;;2.00;;
19301;SDS011;9785;59.362;12.152;2023-05-23T12:20:47;4.73;;;1.97;;
19301;SDS011;9785;59.362;12.152;2023-05-23T12:23:18;2.07;;;1.97;;
19301;SDS011;9785;59.362;12.152;2023-05-23T12:25:50;1.77;;;1.67;;
19301;SDS011;9785;59.362;12.152;2023-05-23T12:28:19;1.80;;;1.70;;
19301;SDS011;9785;59.362;12.152;2023-05-23T12:30:48;1.80;;;1.70;;
19301;SDS011;9785;59.362;12.152;2023-05-23T12:33:17;1.60;;;1.53;;
19301;SDS011;9785;59.362;12.152;2023-05-23T12:35:46;1.70;;;1.60;;
19301;SDS011;9785;59.362;12.152;2023-05-23T12:38:15;1.35;;;1.33;;
19301;SDS011;9785;59.362;12.152;2023-05-23T12:40:45;1.80;;;1.70;;
19301;SDS011;9785;59.362;12.152;2023-05-23T12:43:14;1.77;;;1.67;;
19301;SDS011;9785;59.362;12.152;2023-05-23T12:45:43;1.95;;;1.85;;
19301;SDS011;9785;59.362;12.152;2023-05-23T12:48:11;2.03;;;1.80;;
19301;SDS011;9785;59.362;12.152;2023-05-23T12:50:40;1.90;;;1.80;;
19301;SDS011;9785;59.362;12.152;2023-05-23T12:53:09;1.77;;;1.67;;
19301;SDS011;9785;59.362;12.152;2023-05-23T12:55:37;1.90;;;1.88;;
19301;SDS011;9785;59.362;12.152;2023-05-23T12:58:08;1.88;;;1.80;;
19301;SDS011;9785;59.362;12.152;2023-05-23T13:00:37;2.20;;;2.00;;
19301;SDS011;9785;59.362;12.152;2023-05-23T13:03:06;2.10;;;2.00;;
19301;SDS011;9785;59.362;12.152;2023-05-23T13:05:35;2.10;;;2.00;;
19301;SDS011;9785;59.362;12.152;2023-05-23T13:08:04;2.78;;;1.90;;
19301;SDS011;9785;59.362;12.152;2023-05-23T13:10:33;1.88;;;1.83;;
19301;SDS011;9785;59.362;12.152;2023-05-23T13:13:01;1.73;;;1.63;;
19301;SDS011;9785;59.362;12.152;2023-05-23T13:15:31;1.70;;;1.70;;
19301;SDS011;9785;59.362;12.152;2023-05-23T13:18:00;1.70;;;1.70;;
19301;SDS011;9785;59.362;12.152;2023-05-23T13:20:29;1.95;;;1.85;;
19301;SDS011;9785;59.362;12.152;2023-05-23T13:22:57;2.10;;;2.00;;
19301;SDS011;9785;59.362;12.152;2023-05-23T13:25:27;2.58;;;2.13;;
19301;SDS011;9785;59.362;12.152;2023-05-23T13:27:55;2.13;;;2.00;;
19301;SDS011;9785;59.362;12.152;2023-05-23T13:30:24;2.20;;;2.10;;
19301;SDS011;9785;59.362;12.152;2023-05-23T13:32:54;2.20;;;2.10;;
19301;SDS011;9785;59.362;12.152;2023-05-23T13:35:22;2.13;;;2.03;;
19301;SDS011;9785;59.362;12.152;2023-05-23T13:37:51;2.33;;;2.23;;
19301;SDS011;9785;59.362;12.152;2023-05-23T13:40:20;2.30;;;2.20;;
19301;SDS011;9785;59.362;12.152;2023-05-23T13:42:49;3.90;;;2.27;;
19301;SDS011;9785;59.362;12.152;2023-05-23T13:45:18;2.53;;;2.33;;
19301;SDS011;9785;59.362;12.152;2023-05-23T13:47:48;2.37;;;2.13;;
19301;SDS011;9785;59.362;12.152;2023-05-23T13:50:18;2.63;;;2.43;;
19301;SDS011;9785;59.362;12.152;2023-05-23T13:52:47;2.50;;;2.40;;
19301;SDS011;9785;59.362;12.152;2023-05-23T13:55:16;2.30;;;2.20;;
19301;SDS011;9785;59.362;12.152;2023-05-23T13:57:45;3.53;;;2.50;;
19301;SDS011;9785;59.362;12.152;2023-05-23T14:00:13;2.90;;;2.53;;
19301;SDS011;9785;59.362;12.152;2023-05-23T14:02:42;2.67;;;2.47;;
19301;SDS011;9785;59.362;12.152;2023-05-23T14:05:11;2.90;;;2.43;;
19301;SDS011;9785;59.362;12.152;2023-05-23T14:07:42;2.40;;;2.30;;
19301;SDS011;9785;59.362;12.152;2023-05-23T14:10:12;2.53;;;2.43;;
19301;SDS011;9785;59.362;12.152;2023-05-23T14:12:42;5.67;;;3.00;;
19301;SDS011;9785;59.362;12.152;2023-05-23T14:15:11;4.63;;;2.90;;
19301;SDS011;9785;59.362;12.152;2023-05-23T14:17:40;3.07;;;2.77;;
19301;SDS011;9785;59.362;12.152;2023-05-23T14:20:09;6.87;;;3.00;;
19301;SDS011;9785;59.362;12.152;2023-05-23T14:22:38;4.03;;;3.17;;
19301;SDS011;9785;59.362;12.152;2023-05-23T14:25:08;4.10;;;2.90;;
19301;SDS011;9785;59.362;12.152;2023-05-23T14:27:37;3.07;;;2.80;;
19301;SDS011;9785;59.362;12.152;2023-05-23T14:30:07;3.43;;;2.90;;
19301;SDS011;9785;59.362;12.152;2023-05-23T14:32:35;4.80;;;2.90;;
19301;SDS011;9785;59.362;12.152;2023-05-23T14:35:05;2.87;;;2.67;;
19301;SDS011;9785;59.362;12.152;2023-05-23T14:37:34;2.83;;;2.70;;
19301;SDS011;9785;59.362;12.152;2023-05-23T14:40:03;4.07;;;2.97;;
19301;SDS011;9785;59.362;12.152;2023-05-23T14:42:33;2.63;;;2.50;;
19301;SDS011;9785;59.362;12.152;2023-05-23T14:45:02;2.70;;;2.50;;
19301;SDS011;9785;59.362;12.152;2023-05-23T14:47:31;2.97;;;2.58;;
19301;SDS011;9785;59.362;12.152;2023-05-23T14:50:00;2.78;;;2.58;;
19301;SDS011;9785;59.362;12.152;2023-05-23T14:52:29;4.10;;;2.55;;
19301;SDS011;9785;59.362;12.152;2023-05-23T14:54:58;2.67;;;2.58;;